Kasur, Pakistan
Current Conditions -  °F | °C
As of 8:55 PM on Saturday 20 Dec 2014 (Local Time) from OPLA Reporting Station
Haze Haze  
Wind Chill: 45°   Ceiling: Unl
Heat Index: 45°   Visibility: 0.93mi
Dew Point: 41°   Wind: 0mph
Humidity: 87%   Direction: NA
Pressure: NA   Gusts: NA
Location:  31.12°N, 74.45°E
Report Text: OPLA 201555Z 00000KT 1500 BR NSC 07/05 Q1018/A30.06 BECMG 1000
Loading
Personal Weather Stations






























Interactive Weather Map New forecast layout! Learn more

10-Day Weather Forecast

Advertisements
Track Severe Weather on mobile